sensor_id;sensor_type;location;lat;lon;timestamp;temperature;humidity
14775;DHT22;7479;47.042;15.160;2023-07-20T05:19:48;19.10;99.90
14775;DHT22;7479;47.042;15.160;2023-07-20T05:40:13;19.30;99.90
14775;DHT22;7479;47.042;15.160;2023-07-20T05:45:12;19.60;99.90
14775;DHT22;7479;47.042;15.160;2023-07-20T06:03:30;19.80;99.90
14775;DHT22;7479;47.042;15.160;2023-07-20T06:08:25;19.90;99.90
14775;DHT22;7479;47.042;15.160;2023-07-20T06:13:18;20.00;99.90
14775;DHT22;7479;47.042;15.160;2023-07-20T06:18:12;20.20;99.90
14775;DHT22;7479;47.042;15.160;2023-07-20T06:23:07;20.30;99.90
14775;DHT22;7479;47.042;15.160;2023-07-20T06:28:00;20.50;99.90
14775;DHT22;7479;47.042;15.160;2023-07-20T06:32:56;20.60;99.90
14775;DHT22;7479;47.042;15.160;2023-07-20T06:37:49;20.70;99.90
14775;DHT22;7479;47.042;15.160;2023-07-20T06:42:44;20.70;99.90
14775;DHT22;7479;47.042;15.160;2023-07-20T06:47:41;20.80;99.90
14775;DHT22;7479;47.042;15.160;2023-07-20T06:52:35;21.00;99.90
14775;DHT22;7479;47.042;15.160;2023-07-20T06:57:28;21.20;99.90
14775;DHT22;7479;47.042;15.160;2023-07-20T07:02:23;21.40;99.90
14775;DHT22;7479;47.042;15.160;2023-07-20T07:07:16;21.50;99.90
14775;DHT22;7479;47.042;15.160;2023-07-20T07:12:13;21.70;99.90
14775;DHT22;7479;47.042;15.160;2023-07-20T07:17:06;21.80;99.90
14775;DHT22;7479;47.042;15.160;2023-07-20T07:22:04;21.90;99.90
14775;DHT22;7479;47.042;15.160;2023-07-20T07:26:57;22.10;99.90
14775;DHT22;7479;47.042;15.160;2023-07-20T07:31:51;22.30;99.90
14775;DHT22;7479;47.042;15.160;2023-07-20T07:36:45;22.70;99.90
14775;DHT22;7479;47.042;15.160;2023-07-20T07:41:40;23.40;99.90
14775;DHT22;7479;47.042;15.160;2023-07-20T07:46:34;23.80;99.90
14775;DHT22;7479;47.042;15.160;2023-07-20T07:51:27;24.10;99.90
14775;DHT22;7479;47.042;15.160;2023-07-20T07:56:21;24.30;99.90
14775;DHT22;7479;47.042;15.160;2023-07-20T08:01:17;24.50;99.90
14775;DHT22;7479;47.042;15.160;2023-07-20T08:06:11;24.40;99.90
14775;DHT22;7479;47.042;15.160;2023-07-20T08:11:05;24.50;99.90
14775;DHT22;7479;47.042;15.160;2023-07-20T08:15:59;24.80;99.90
14775;DHT22;7479;47.042;15.160;2023-07-20T08:20:55;25.00;99.90
14775;DHT22;7479;47.042;15.160;2023-07-20T08:25:49;25.20;99.90
14775;DHT22;7479;47.042;15.160;2023-07-20T08:30:46;25.30;99.90
14775;DHT22;7479;47.042;15.160;2023-07-20T08:35:40;25.50;99.90
14775;DHT22;7479;47.042;15.160;2023-07-20T08:40:39;25.70;99.90
14775;DHT22;7479;47.042;15.160;2023-07-20T08:45:34;25.80;99.90
14775;DHT22;7479;47.042;15.160;2023-07-20T08:50:30;26.10;98.30
14775;DHT22;7479;47.042;15.160;2023-07-20T08:55:24;26.30;96.60
14775;DHT22;7479;47.042;15.160;2023-07-20T09:00:25;26.40;97.50
14775;DHT22;7479;47.042;15.160;2023-07-20T09:05:19;26.50;96.90
14775;DHT22;7479;47.042;15.160;2023-07-20T09:10:13;26.70;95.80
14775;DHT22;7479;47.042;15.160;2023-07-20T09:15:08;26.90;95.00
14775;DHT22;7479;47.042;15.160;2023-07-20T09:20:05;27.30;95.10
14775;DHT22;7479;47.042;15.160;2023-07-20T09:25:00;27.60;94.30
14775;DHT22;7479;47.042;15.160;2023-07-20T09:29:54;28.00;96.30
14775;DHT22;7479;47.042;15.160;2023-07-20T09:34:50;28.30;94.70
14775;DHT22;7479;47.042;15.160;2023-07-20T09:39:45;28.60;93.60
14775;DHT22;7479;47.042;15.160;2023-07-20T09:44:44;28.80;92.50
14775;DHT22;7479;47.042;15.160;2023-07-20T09:49:40;28.90;93.20
14775;DHT22;7479;47.042;15.160;2023-07-20T09:54:38;29.20;92.50
14775;DHT22;7479;47.042;15.160;2023-07-20T09:59:33;29.60;91.80
14775;DHT22;7479;47.042;15.160;2023-07-20T10:04:28;29.80;90.70
14775;DHT22;7479;47.042;15.160;2023-07-20T10:09:24;30.10;91.80
14775;DHT22;7479;47.042;15.160;2023-07-20T10:14:20;29.50;88.00
14775;DHT22;7479;47.042;15.160;2023-07-20T10:19:22;29.20;91.50
14775;DHT22;7479;47.042;15.160;2023-07-20T10:24:17;29.00;91.70
14775;DHT22;7479;47.042;15.160;2023-07-20T10:29:14;28.50;91.90
14775;DHT22;7479;47.042;15.160;2023-07-20T10:34:08;28.10;92.90
14775;DHT22;7479;47.042;15.160;2023-07-20T10:39:03;28.10;93.00
14775;DHT22;7479;47.042;15.160;2023-07-20T10:44:01;28.50;93.00
14775;DHT22;7479;47.042;15.160;2023-07-20T10:48:59;29.10;90.60
14775;DHT22;7479;47.042;15.160;2023-07-20T10:53:55;29.00;90.00
14775;DHT22;7479;47.042;15.160;2023-07-20T10:58:56;28.50;91.10
14775;DHT22;7479;47.042;15.160;2023-07-20T11:03:50;28.10;92.10
14775;DHT22;7479;47.042;15.160;2023-07-20T11:08:45;27.80;92.40
14775;DHT22;7479;47.042;15.160;2023-07-20T11:13:53;27.70;94.30
14775;DHT22;7479;47.042;15.160;2023-07-20T11:18:47;26.80;97.70
14775;DHT22;7479;47.042;15.160;2023-07-20T11:23:43;25.60;99.90
14775;DHT22;7479;47.042;15.160;2023-07-20T11:28:37;25.20;99.90
14775;DHT22;7479;47.042;15.160;2023-07-20T11:33:32;25.00;99.90
14775;DHT22;7479;47.042;15.160;2023-07-20T11:38:25;26.10;99.90
14775;DHT22;7479;47.042;15.160;2023-07-20T11:43:19;27.10;99.90
14775;DHT22;7479;47.042;15.160;2023-07-20T11:48:15;28.00;99.90
14775;DHT22;7479;47.042;15.160;2023-07-20T11:53:10;28.60;99.90
14775;DHT22;7479;47.042;15.160;2023-07-20T11:58:05;28.90;99.90
14775;DHT22;7479;47.042;15.160;2023-07-20T12:02:58;29.10;96.70
14775;DHT22;7479;47.042;15.160;2023-07-20T12:07:52;29.60;97.80
14775;DHT22;7479;47.042;15.160;2023-07-20T12:12:48;29.20;94.80
14775;DHT22;7479;47.042;15.160;2023-07-20T12:17:43;28.50;95.40
14775;DHT22;7479;47.042;15.160;2023-07-20T12:22:39;27.90;96.10
14775;DHT22;7479;47.042;15.160;2023-07-20T12:27:32;27.40;97.30
14775;DHT22;7479;47.042;15.160;2023-07-20T12:32:27;27.00;96.40
14775;DHT22;7479;47.042;15.160;2023-07-20T12:37:20;26.20;99.20
14775;DHT22;7479;47.042;15.160;2023-07-20T12:42:14;25.40;99.90
14775;DHT22;7479;47.042;15.160;2023-07-20T12:47:09;24.80;99.90
14775;DHT22;7479;47.042;15.160;2023-07-20T12:52:05;24.60;99.90
14775;DHT22;7479;47.042;15.160;2023-07-20T12:56:58;25.70;99.90
14775;DHT22;7479;47.042;15.160;2023-07-20T13:01:55;26.10;99.90
14775;DHT22;7479;47.042;15.160;2023-07-20T13:06:48;25.60;99.90
14775;DHT22;7479;47.042;15.160;2023-07-20T13:11:43;25.40;99.90
14775;DHT22;7479;47.042;15.160;2023-07-20T13:16:38;24.90;99.90
14775;DHT22;7479;47.042;15.160;2023-07-20T13:21:31;24.30;99.90
14775;DHT22;7479;47.042;15.160;2023-07-20T13:26:25;24.80;99.90
14775;DHT22;7479;47.042;15.160;2023-07-20T13:31:19;25.80;99.90
14775;DHT22;7479;47.042;15.160;2023-07-20T13:36:15;27.50;99.90
14775;DHT22;7479;47.042;15.160;2023-07-20T13:41:09;28.10;99.90
14775;DHT22;7479;47.042;15.160;2023-07-20T13:46:02;27.50;99.90
14775;DHT22;7479;47.042;15.160;2023-07-20T13:50:57;26.90;99.90
14775;DHT22;7479;47.042;15.160;2023-07-20T13:55:52;27.20;99.90
14775;DHT22;7479;47.042;15.160;2023-07-20T14:00:48;27.60;99.90
14775;DHT22;7479;47.042;15.160;2023-07-20T14:05:42;28.80;99.10
14775;DHT22;7479;47.042;15.160;2023-07-20T14:10:40;29.50;96.50
14775;DHT22;7479;47.042;15.160;2023-07-20T14:15:36;29.70;95.20
14775;DHT22;7479;47.042;15.160;2023-07-20T14:20:30;30.60;94.90
14775;DHT22;7479;47.042;15.160;2023-07-20T14:25:23;30.30;94.60
14775;DHT22;7479;47.042;15.160;2023-07-20T14:30:22;30.10;93.70
14775;DHT22;7479;47.042;15.160;2023-07-20T14:35:16;29.70;94.70
14775;DHT22;7479;47.042;15.160;2023-07-20T14:40:11;29.50;93.40
14775;DHT22;7479;47.042;15.160;2023-07-20T14:45:06;29.90;92.90
14775;DHT22;7479;47.042;15.160;2023-07-20T14:50:01;30.00;92.20
14775;DHT22;7479;47.042;15.160;2023-07-20T14:54:55;29.40;93.50
14775;DHT22;7479;47.042;15.160;2023-07-20T14:59:49;28.90;92.10
14775;DHT22;7479;47.042;15.160;2023-07-20T15:04:46;28.60;93.10
14775;DHT22;7479;47.042;15.160;2023-07-20T15:09:42;28.80;93.30
14775;DHT22;7479;47.042;15.160;2023-07-20T15:14:40;28.60;93.30
14775;DHT22;7479;47.042;15.160;2023-07-20T15:19:34;28.40;93.40
14775;DHT22;7479;47.042;15.160;2023-07-20T15:24:28;27.90;94.40
14775;DHT22;7479;47.042;15.160;2023-07-20T15:29:23;27.60;95.40
14775;DHT22;7479;47.042;15.160;2023-07-20T15:34:19;27.40;96.30
14775;DHT22;7479;47.042;15.160;2023-07-20T15:39:14;27.20;96.00
14775;DHT22;7479;47.042;15.160;2023-07-20T15:44:07;27.10;97.10
14775;DHT22;7479;47.042;15.160;2023-07-20T15:49:02;26.90;96.70
14775;DHT22;7479;47.042;15.160;2023-07-20T15:53:56;26.70;98.30
14775;DHT22;7479;47.042;15.160;2023-07-20T15:58:50;26.40;99.50
14775;DHT22;7479;47.042;15.160;2023-07-20T16:03:44;26.30;99.90
14775;DHT22;7479;47.042;15.160;2023-07-20T16:08:39;26.30;99.40
14775;DHT22;7479;47.042;15.160;2023-07-20T16:13:33;26.10;99.20
14775;DHT22;7479;47.042;15.160;2023-07-20T16:18:26;26.20;99.80
14775;DHT22;7479;47.042;15.160;2023-07-20T16:23:19;26.40;99.90
14775;DHT22;7479;47.042;15.160;2023-07-20T16:28:15;26.60;99.80
14775;DHT22;7479;47.042;15.160;2023-07-20T16:33:08;26.80;99.00
14775;DHT22;7479;47.042;15.160;2023-07-20T16:38:02;26.80;98.70
14775;DHT22;7479;47.042;15.160;2023-07-20T16:42:58;26.70;99.20
14775;DHT22;7479;47.042;15.160;2023-07-20T16:47:56;26.30;99.40
14775;DHT22;7479;47.042;15.160;2023-07-20T16:52:49;26.30;99.90
14775;DHT22;7479;47.042;15.160;2023-07-20T16:57:43;26.40;99.80
14775;DHT22;7479;47.042;15.160;2023-07-20T17:02:36;26.30;98.90
14775;DHT22;7479;47.042;15.160;2023-07-20T17:07:31;26.00;99.90
14775;DHT22;7479;47.042;15.160;2023-07-20T17:12:24;25.80;99.90
14775;DHT22;7479;47.042;15.160;2023-07-20T17:17:18;25.70;99.90
14775;DHT22;7479;47.042;15.160;2023-07-20T17:22:12;25.50;99.90
14775;DHT22;7479;47.042;15.160;2023-07-20T17:27:07;25.60;99.90
14775;DHT22;7479;47.042;15.160;2023-07-20T17:32:04;25.40;99.90
14775;DHT22;7479;47.042;15.160;2023-07-20T17:36:58;25.30;99.90
14775;DHT22;7479;47.042;15.160;2023-07-20T17:41:54;25.10;99.90
14775;DHT22;7479;47.042;15.160;2023-07-20T17:46:49;25.00;99.90
14775;DHT22;7479;47.042;15.160;2023-07-20T17:51:45;24.80;99.90
14775;DHT22;7479;47.042;15.160;2023-07-20T17:56:39;24.60;99.90
14775;DHT22;7479;47.042;15.160;2023-07-20T18:01:32;24.50;99.90
14775;DHT22;7479;47.042;15.160;2023-07-20T18:06:27;24.40;99.90
14775;DHT22;7479;47.042;15.160;2023-07-20T18:11:21;24.30;99.90
14775;DHT22;7479;47.042;15.160;2023-07-20T18:16:15;24.10;99.90
14775;DHT22;7479;47.042;15.160;2023-07-20T18:21:09;23.90;99.90
14775;DHT22;7479;47.042;15.160;2023-07-20T18:26:03;23.80;99.90
14775;DHT22;7479;47.042;15.160;2023-07-20T18:30:57;23.70;99.90
14775;DHT22;7479;47.042;15.160;2023-07-20T18:35:52;23.60;99.90
14775;DHT22;7479;47.042;15.160;2023-07-20T18:40:46;23.60;99.90
14775;DHT22;7479;47.042;15.160;2023-07-20T18:45:41;23.60;99.90
14775;DHT22;7479;47.042;15.160;2023-07-20T18:50:35;23.50;99.90
14775;DHT22;7479;47.042;15.160;2023-07-20T18:55:28;23.40;99.90
14775;DHT22;7479;47.042;15.160;2023-07-20T19:00:22;23.30;99.90
14775;DHT22;7479;47.042;15.160;2023-07-20T19:05:17;23.20;99.90
14775;DHT22;7479;47.042;15.160;2023-07-20T19:10:11;23.00;99.90
14775;DHT22;7479;47.042;15.160;2023-07-20T19:15:06;23.00;99.90
14775;DHT22;7479;47.042;15.160;2023-07-20T19:20:01;22.90;99.90
14775;DHT22;7479;47.042;15.160;2023-07-20T19:24:56;22.80;99.90
14775;DHT22;7479;47.042;15.160;2023-07-20T19:29:51;22.80;99.90
14775;DHT22;7479;47.042;15.160;2023-07-20T19:34:44;22.80;99.90
